WetterOnline ( https://www.wetteronline.de )

Wetter aktuell Zingst

Aktuelles Wetter: Barth (7m)

6-stündlich | Neueste Meldungen
Ortszeit Temperatur Wetter
Sa, 16.11. 19:00 5.2° C bewölkt
Sa, 16.11. 13:00 9.0° C Regen
Sa, 16.11. 7:00 8.4° C bewölkt
Sa, 16.11. 1:00 8.7° C bedeckt
Fr, 15.11. 19:00 8.3° C bedeckt
Fr, 15.11. 13:00 7.8° C bedeckt
Fr, 15.11. 7:00 4.6° C bedeckt
Fr, 15.11. 1:00 3.4° C bedeckt
Ortszeit Temperatur Wetter
Sa, 16.11. 22:40 5.0° C wolkenlos
Sa, 16.11. 22:30 5.0° C fast wolkenlos
Sa, 16.11. 22:20 5.0° C fast wolkenlos
Sa, 16.11. 22:10 5.0° C leicht bewölkt
Sa, 16.11. 22:00 5.3° C wolkig
Sa, 16.11. 21:50 5.3° C wolkig
Sa, 16.11. 21:30 5.4° C leicht bewölkt
Sa, 16.11. 21:00 5.9° C bedeckt
Sa, 16.11. 20:30 5.8° C bedeckt
Sa, 16.11. 20:00 5.7° C bedeckt
Sa, 16.11. 19:30 5.4° C bedeckt
Ortszeit Relative Feuchte Sichtweite
Sa, 16.11. 19:00 86% 28 km
Sa, 16.11. 13:00 93% 6 km
Sa, 16.11. 7:00 93% 5.0 km
Sa, 16.11. 1:00 90% 7 km
Fr, 15.11. 19:00 88% 20 km
Fr, 15.11. 13:00 86% 22 km
Fr, 15.11. 7:00 84% 12 km
Fr, 15.11. 1:00 93% 5.0 km
Ortszeit Relative Feuchte Sichtweite
Sa, 16.11. 22:40 79% -
Sa, 16.11. 22:30 80% 30 km
Sa, 16.11. 22:20 80% -
Sa, 16.11. 22:10 80% -
Sa, 16.11. 22:00 80% 30 km
Sa, 16.11. 21:50 80% -
Sa, 16.11. 21:30 82% 21 km
Sa, 16.11. 21:00 83% 15 km
Sa, 16.11. 20:30 84% 18 km
Sa, 16.11. 20:00 84% 20 km
Sa, 16.11. 19:30 84% 26 km
Ortszeit Niederschlagsmenge Niederschlagsart
Sa, 16.11. 19:00 2 l/m2 in 12 Std. Regen
Sa, 16.11. 13:00 2 l/m2 in 6 Std. Regen
Sa, 16.11. 7:00 0.0 l/m2 in 12 Std. -
Sa, 16.11. 1:00 0.0 l/m2 in 6 Std. -
Fr, 15.11. 19:00 0.0 l/m2 in 12 Std. -
Fr, 15.11. 13:00 0.0 l/m2 in 6 Std. -
Fr, 15.11. 7:00 0.0 l/m2 in 12 Std. -
Fr, 15.11. 1:00 0.0 l/m2 in 6 Std. -
Ortszeit Niederschlagsmenge Niederschlagsart
Sa, 16.11. 22:40 keine Meldung -
Sa, 16.11. 22:30 0.0 l/m2 in 1 Std. -
Sa, 16.11. 22:20 keine Meldung -
Sa, 16.11. 22:10 keine Meldung -
Sa, 16.11. 22:00 0.0 l/m2 in 1 Std. -
Sa, 16.11. 21:50 keine Meldung -
Sa, 16.11. 21:30 0.0 l/m2 in 1 Std. -
Sa, 16.11. 21:00 0.0 l/m2 in 1 Std. -
Sa, 16.11. 20:30 0.0 l/m2 in 1 Std. -
Sa, 16.11. 20:00 0.0 l/m2 in 1 Std. -
Sa, 16.11. 19:30 0.0 l/m2 in 1 Std. -
Ortszeit Stärke Spitze Richtung
km/h Bft. km/h Grad Sektor
Sa, 16.11. 19:00 30 5 52 220° SW
Sa, 16.11. 13:00 14 3 32 180° S
Sa, 16.11. 7:00 14 3 32 80° O
Sa, 16.11. 1:00 19 3 33 90° O
Fr, 15.11. 19:00 18 3 47 90° O
Fr, 15.11. 13:00 31 5 57 90° O
Fr, 15.11. 7:00 33 5 52 100° O
Fr, 15.11. 1:00 14 3 29 100° O
Ortszeit Stärke Spitze Richtung
km/h Bft. km/h Grad Sektor
Sa, 16.11. 22:40 28 4 - 210° SW
Sa, 16.11. 22:30 26 4 39 210° SW
Sa, 16.11. 22:20 26 4 - 210° SW
Sa, 16.11. 22:10 24 4 - 210° SW
Sa, 16.11. 22:00 28 4 44 210° SW
Sa, 16.11. 21:50 28 4 - 210° SW
Sa, 16.11. 21:30 28 4 44 210° SW
Sa, 16.11. 21:00 31 5 48 210° SW
Sa, 16.11. 20:30 28 4 43 210° SW
Sa, 16.11. 20:00 30 5 46 210° SW
Sa, 16.11. 19:30 30 5 44 220° SW
Ortszeit Untergrenze Bedeckung Gattung
total tief tief mittel hoch
Sa, 16.11. 19:00 420 m 8/8 7/8 - - -
Sa, 16.11. 13:00 210 m 8/8 8/8 - - -
Sa, 16.11. 7:00 1380 m 8/8 7/8 - - -
Sa, 16.11. 1:00 450 m 8/8 8/8 - - -
Fr, 15.11. 19:00 420 m 8/8 8/8 - - -
Fr, 15.11. 13:00 300 m 8/8 8/8 - - -
Fr, 15.11. 7:00 390 m 8/8 8/8 - - -
Fr, 15.11. 1:00 210 m 8/8 8/8 - - -
Ortszeit Bedeckungsgrad in Achtel und Wolkenuntergrenze
Sa, 16.11. 22:40 keine Wolken
Sa, 16.11. 22:30 1(6900m)
Sa, 16.11. 22:20 1(6900m)
Sa, 16.11. 22:10 3(6900m)
Sa, 16.11. 22:00 2(1290m) 7(6900m)
Sa, 16.11. 21:50 2(1290m) 7(6900m)
Sa, 16.11. 21:30 1(540m) 3(930m) 3(6900m)
Sa, 16.11. 21:00 6(540m) 8(870m) 8(1260m)
Sa, 16.11. 20:30 6(540m) 8(750m) 8(1380m)
Sa, 16.11. 20:00 7(510m) 8(720m) 8(1110m)
Sa, 16.11. 19:30 8(450m)
Ortszeit Luftdruck NN (hPa) Tendenz (hPa in 3 Std.)
Sa, 16.11. 19:00 1007 + 2,7
Sa, 16.11. 13:00 1002 - 0,8
Sa, 16.11. 7:00 1003 - 2,3
Sa, 16.11. 1:00 1006 - 1,2
Fr, 15.11. 19:00 1008 - 0,2
Fr, 15.11. 13:00 1009 - 1,4
Fr, 15.11. 7:00 1011 - 0,9
Fr, 15.11. 1:00 1013 0,0
Ortszeit Luftdruck NN (hPa) Tendenz (hPa in 3 Std.)
Sa, 16.11. 22:40 1011 keine Meldung
Sa, 16.11. 22:30 1011 + 3,3
Sa, 16.11. 22:20 1011 keine Meldung
Sa, 16.11. 22:10 1011 keine Meldung
Sa, 16.11. 22:00 1010 + 3,2
Sa, 16.11. 21:50 1010 keine Meldung
Sa, 16.11. 21:30 1010 + 3,2
Sa, 16.11. 21:00 1010 + 3,2
Sa, 16.11. 20:30 1009 + 2,8
Sa, 16.11. 20:00 1009 + 2,8
Sa, 16.11. 19:30 1008 + 2,5
Ortszeit Schneehöhe (cm)
Sa, 16.11. 19:00 0
Sa, 16.11. 13:00 0
Sa, 16.11. 7:00 0
Sa, 16.11. 1:00 0
Fr, 15.11. 19:00 0
Fr, 15.11. 13:00 0
Fr, 15.11. 7:00 0
Fr, 15.11. 1:00 0
Ortszeit Schneehöhe (cm)
Sa, 16.11. 22:40 0
Sa, 16.11. 22:30 0
Sa, 16.11. 22:20 0
Sa, 16.11. 22:10 0
Sa, 16.11. 22:00 0
Sa, 16.11. 21:50 0
Sa, 16.11. 21:30 0
Sa, 16.11. 21:00 0
Sa, 16.11. 20:30 0
Sa, 16.11. 20:00 0
Sa, 16.11. 19:30 0
Link zu dieser Seite / Seite empfehlen

Das Wetter in ...